createdAt,value
2022-10-09T00:00:51.064Z,12.35
2022-10-09T00:03:18.351Z,12.34
2022-10-09T00:05:45.748Z,12.36
2022-10-09T00:08:12.778Z,12.37
2022-10-09T00:10:43.791Z,12.31
2022-10-09T00:13:11.492Z,12.33
2022-10-09T00:15:42.684Z,12.52
2022-10-09T00:18:10.955Z,12.58
2022-10-09T00:20:39.027Z,12.62
2022-10-09T00:23:06.091Z,12.73
2022-10-09T00:25:33.435Z,12.81
2022-10-09T00:28:00.832Z,12.83
2022-10-09T00:30:27.911Z,12.87
2022-10-09T00:32:54.693Z,12.88
2022-10-09T00:35:22.253Z,12.92
2022-10-09T00:37:49.218Z,12.95
2022-10-09T00:40:16.694Z,12.96
2022-10-09T00:42:45.695Z,12.99
2022-10-09T00:45:20.218Z,13.13
2022-10-09T00:47:50.680Z,13.20
2022-10-09T00:50:22.405Z,13.24
2022-10-09T00:52:53.120Z,13.32
2022-10-09T00:55:22.063Z,13.33
2022-10-09T00:57:50.052Z,13.35
2022-10-09T01:00:17.288Z,13.36
2022-10-09T01:02:44.377Z,13.33
2022-10-09T01:05:11.711Z,13.28
2022-10-09T01:07:53.863Z,13.28
2022-10-09T01:10:50.316Z,13.29
2022-10-09T01:13:36.141Z,13.25
2022-10-09T01:16:23.524Z,13.22
2022-10-09T01:19:29.100Z,13.21
2022-10-09T01:22:13.820Z,13.16
2022-10-09T01:24:53.380Z,13.14
2022-10-09T01:27:25.537Z,13.17
2022-10-09T01:30:06.225Z,13.22
2022-10-09T01:32:37.557Z,13.26
2022-10-09T01:35:06.505Z,13.27
2022-10-09T01:37:35.323Z,13.27
2022-10-09T01:40:03.114Z,13.30
2022-10-09T01:42:31.503Z,13.34
2022-10-09T01:44:58.323Z,13.35
2022-10-09T01:47:25.184Z,13.34
2022-10-09T01:50:06.923Z,13.26
2022-10-09T01:52:47.833Z,13.24
2022-10-09T01:55:23.442Z,13.20
2022-10-09T01:58:18.364Z,13.15
2022-10-09T02:00:49.664Z,13.13
2022-10-09T02:03:17.307Z,13.13
2022-10-09T02:05:47.063Z,13.10
2022-10-09T02:08:19.094Z,13.14
2022-10-09T02:10:49.266Z,13.14
2022-10-09T02:13:16.053Z,13.13
2022-10-09T02:15:51.257Z,13.12
2022-10-09T02:18:26.896Z,13.10
2022-10-09T02:21:01.108Z,13.11
2022-10-09T02:23:28.916Z,13.11
2022-10-09T02:25:56.052Z,13.12
2022-10-09T02:28:22.805Z,13.08
2022-10-09T02:31:04.595Z,13.02
2022-10-09T02:33:33.812Z,12.96
2022-10-09T02:36:01.917Z,12.92
2022-10-09T02:38:28.964Z,12.86
2022-10-09T02:41:00.383Z,12.86
2022-10-09T02:43:27.818Z,12.83
2022-10-09T02:45:54.814Z,12.79
2022-10-09T02:48:21.581Z,12.76
2022-10-09T02:50:48.397Z,12.80
2022-10-09T02:53:15.138Z,12.80
2022-10-09T02:55:41.891Z,12.79
2022-10-09T02:58:08.660Z,12.78
2022-10-09T03:00:37.289Z,12.83
2022-10-09T03:03:04.160Z,12.83
2022-10-09T03:05:30.939Z,12.84
2022-10-09T03:07:58.685Z,12.82
2022-10-09T03:10:25.388Z,12.83
2022-10-09T03:12:52.215Z,12.83
2022-10-09T03:15:18.973Z,12.88
2022-10-09T03:17:45.713Z,12.92
2022-10-09T03:20:12.435Z,12.95
2022-10-09T03:22:39.153Z,12.97
2022-10-09T03:25:06.441Z,12.96
2022-10-09T03:27:33.456Z,12.98
2022-10-09T03:30:00.162Z,12.99
2022-10-09T03:32:26.997Z,12.98
2022-10-09T03:34:53.741Z,13.00
2022-10-09T03:37:20.460Z,12.97
2022-10-09T03:39:47.241Z,12.95
2022-10-09T03:42:14.058Z,12.93
2022-10-09T03:44:40.744Z,12.89
2022-10-09T03:47:07.553Z,12.86
2022-10-09T03:49:34.267Z,12.85
2022-10-09T03:52:00.973Z,12.82
2022-10-09T03:54:27.771Z,12.82
2022-10-09T03:56:54.451Z,12.81
2022-10-09T03:59:21.139Z,12.78
2022-10-09T04:01:47.859Z,12.77
2022-10-09T04:04:15.129Z,12.75
2022-10-09T04:06:41.917Z,12.70
2022-10-09T04:09:09.386Z,12.74
2022-10-09T04:11:36.130Z,12.73
2022-10-09T04:14:03.542Z,12.72
2022-10-09T04:16:30.303Z,12.72
2022-10-09T04:18:57.038Z,12.71
2022-10-09T04:21:23.760Z,12.74
2022-10-09T04:23:51.253Z,12.76
2022-10-09T04:26:17.942Z,12.78
2022-10-09T04:28:44.934Z,12.79
2022-10-09T04:31:11.783Z,12.78
2022-10-09T04:33:38.534Z,12.76
2022-10-09T04:36:05.424Z,12.73
2022-10-09T04:38:32.130Z,12.71
2022-10-09T04:41:05.394Z,12.69
2022-10-09T04:43:33.746Z,12.63
2022-10-09T04:46:05.268Z,12.62
2022-10-09T04:48:32.059Z,12.59
2022-10-09T04:50:58.780Z,12.53
2022-10-09T04:53:25.464Z,12.52
2022-10-09T04:55:52.312Z,12.47
2022-10-09T04:58:18.974Z,12.45
2022-10-09T05:00:46.668Z,12.41
2022-10-09T05:03:13.747Z,12.37
2022-10-09T05:05:40.436Z,12.34
2022-10-09T05:08:07.204Z,12.32
2022-10-09T05:10:33.992Z,12.29
2022-10-09T05:13:00.796Z,12.29
2022-10-09T05:15:28.000Z,12.30
2022-10-09T05:17:54.537Z,12.30
2022-10-09T05:20:21.272Z,12.31
2022-10-09T05:22:48.436Z,12.28
2022-10-09T05:25:15.473Z,12.32
2022-10-09T05:27:42.169Z,12.33
2022-10-09T05:30:09.667Z,12.36
2022-10-09T05:32:36.383Z,12.39
2022-10-09T05:35:04.366Z,12.38
2022-10-09T05:37:31.159Z,12.34
2022-10-09T05:39:57.915Z,12.24
2022-10-09T05:42:24.692Z,12.27
2022-10-09T05:44:51.411Z,12.30
2022-10-09T05:47:19.763Z,12.28
2022-10-09T05:49:46.733Z,12.29
2022-10-09T05:52:13.497Z,12.32
2022-10-09T05:54:41.926Z,12.33
2022-10-09T05:57:09.309Z,12.30
2022-10-09T05:59:36.089Z,12.28
2022-10-09T06:02:02.796Z,12.27
2022-10-09T06:04:29.863Z,12.31
2022-10-09T06:06:56.556Z,12.37
2022-10-09T06:09:25.728Z,12.44
2022-10-09T06:11:54.246Z,12.50
2022-10-09T06:14:25.068Z,12.54
2022-10-09T06:16:52.082Z,12.62
2022-10-09T06:19:19.909Z,12.69
2022-10-09T06:21:47.237Z,12.74
2022-10-09T06:24:22.245Z,12.83
2022-10-09T06:26:52.506Z,12.99
2022-10-09T06:29:19.186Z,13.17
2022-10-09T06:31:45.876Z,13.25
2022-10-09T06:34:12.611Z,13.36
2022-10-09T06:36:39.316Z,13.46
2022-10-09T06:39:07.491Z,13.60
2022-10-09T06:41:34.852Z,13.74
2022-10-09T06:44:16.332Z,13.89
2022-10-09T06:46:45.358Z,14.07
2022-10-09T06:49:12.577Z,14.18
2022-10-09T06:51:39.556Z,14.34
2022-10-09T06:54:11.755Z,14.53
2022-10-09T06:56:38.811Z,14.65
2022-10-09T06:59:07.551Z,14.68
2022-10-09T07:01:34.600Z,14.71
2022-10-09T07:04:07.074Z,14.72
2022-10-09T07:06:37.951Z,14.83
2022-10-09T07:09:08.080Z,14.86
2022-10-09T07:11:46.027Z,14.87
2022-10-09T07:14:14.114Z,14.93
2022-10-09T07:16:42.883Z,14.94
2022-10-09T07:19:11.399Z,14.89
2022-10-09T07:21:40.904Z,14.85
2022-10-09T07:24:07.842Z,14.88
2022-10-09T07:26:37.116Z,14.88
2022-10-09T07:29:06.210Z,14.94
2022-10-09T07:31:33.122Z,14.94
2022-10-09T07:34:00.045Z,14.90
2022-10-09T07:36:26.887Z,14.96
2022-10-09T07:38:56.113Z,15.07
2022-10-09T07:41:25.604Z,15.19
2022-10-09T07:43:52.747Z,15.19
2022-10-09T07:46:20.248Z,15.26
2022-10-09T07:48:48.321Z,15.37
2022-10-09T07:51:21.064Z,15.45
2022-10-09T07:53:48.540Z,15.64
2022-10-09T07:56:24.176Z,15.88
2022-10-09T07:58:56.713Z,16.17
2022-10-09T08:01:25.632Z,16.12
2022-10-09T08:03:52.332Z,16.13
2022-10-09T08:06:19.786Z,16.26
2022-10-09T08:08:51.222Z,16.45
2022-10-09T08:11:18.821Z,16.46
2022-10-09T08:13:47.246Z,16.38
2022-10-09T08:16:16.301Z,16.27
2022-10-09T08:18:43.181Z,16.36
2022-10-09T08:21:12.891Z,16.38
2022-10-09T08:23:39.730Z,16.38
2022-10-09T08:26:16.032Z,16.41
2022-10-09T08:28:43.355Z,16.58
2022-10-09T08:31:15.014Z,16.71
2022-10-09T08:33:42.587Z,16.62
2022-10-09T08:36:11.640Z,16.53
2022-10-09T08:38:48.552Z,16.55
2022-10-09T08:41:37.330Z,16.74
2022-10-09T08:44:10.023Z,16.96
2022-10-09T08:47:07.452Z,17.16
2022-10-09T08:49:59.739Z,17.06
2022-10-09T08:52:29.379Z,17.13
2022-10-09T08:55:01.897Z,17.13
2022-10-09T08:57:32.648Z,17.14
2022-10-09T08:59:59.351Z,17.10
2022-10-09T09:02:38.339Z,17.03
2022-10-09T09:05:05.107Z,16.89
2022-10-09T09:07:46.833Z,16.67
2022-10-09T09:10:28.736Z,16.50
2022-10-09T09:12:59.625Z,16.48
2022-10-09T09:15:26.379Z,16.40
2022-10-09T09:18:17.749Z,16.28
2022-10-09T09:20:52.365Z,16.32
2022-10-09T09:23:26.959Z,16.38
2022-10-09T09:25:54.100Z,16.38
2022-10-09T09:28:28.592Z,16.49
2022-10-09T09:31:00.530Z,16.61
2022-10-09T09:33:44.793Z,16.72
2022-10-09T09:36:25.128Z,16.85
2022-10-09T09:41:44.041Z,17.06
2022-10-09T09:44:13.102Z,17.10
2022-10-09T09:46:42.011Z,17.15
2022-10-09T09:49:20.125Z,17.25
2022-10-09T09:51:49.691Z,17.31
2022-10-09T09:54:17.777Z,17.33
2022-10-09T09:59:37.051Z,17.49
2022-10-09T10:02:12.810Z,17.62
2022-10-09T10:04:59.390Z,17.65
2022-10-09T10:07:33.500Z,17.73
2022-10-09T10:10:07.483Z,17.78
2022-10-09T10:12:39.259Z,17.69
2022-10-09T10:15:06.510Z,17.73
2022-10-09T10:17:35.947Z,17.78
2022-10-09T10:20:06.527Z,17.77
2022-10-09T10:22:33.692Z,17.87
2022-10-09T10:25:00.640Z,17.99
2022-10-09T10:27:39.738Z,17.90
2022-10-09T10:30:13.351Z,17.92
2022-10-09T10:33:14.281Z,17.98
2022-10-09T10:35:43.402Z,18.07
2022-10-09T10:38:25.551Z,17.98
2022-10-09T10:41:14.893Z,18.14
2022-10-09T10:43:48.393Z,18.34
2022-10-09T10:46:23.842Z,18.54
2022-10-09T10:48:51.742Z,18.55
2022-10-09T10:51:33.331Z,18.39
2022-10-09T10:54:05.848Z,18.62
2022-10-09T10:56:46.662Z,18.39
2022-10-09T10:59:23.674Z,18.37
2022-10-09T11:02:11.971Z,18.50
2022-10-09T11:04:55.172Z,18.53
2022-10-09T11:07:41.972Z,18.50
2022-10-09T11:10:39.604Z,18.62
2022-10-09T11:13:29.877Z,18.88
2022-10-09T11:16:15.108Z,19.12
2022-10-09T11:18:56.957Z,18.93
2022-10-09T11:21:32.828Z,19.02
2022-10-09T11:24:05.417Z,19.25
2022-10-09T11:27:10.211Z,18.93
2022-10-09T11:29:43.765Z,18.93
2022-10-09T11:32:36.412Z,19.30
2022-10-09T11:35:13.917Z,19.43
2022-10-09T11:37:43.441Z,19.11
2022-10-09T11:40:24.646Z,19.07
2022-10-09T11:43:02.117Z,19.42
2022-10-09T11:45:51.367Z,19.67
2022-10-09T11:48:34.108Z,19.94
2022-10-09T11:51:09.145Z,19.74
2022-10-09T11:53:38.607Z,19.95
2022-10-09T11:56:23.650Z,20.29
2022-10-09T11:58:58.583Z,20.32
2022-10-09T12:01:40.395Z,20.30
2022-10-09T12:04:43.617Z,20.53
2022-10-09T12:07:12.612Z,20.74
2022-10-09T12:09:48.385Z,20.91
2022-10-09T12:12:18.505Z,21.06
2022-10-09T12:14:48.029Z,20.67
2022-10-09T12:17:23.803Z,20.48
2022-10-09T12:19:57.379Z,20.18
2022-10-09T12:22:33.620Z,20.12
2022-10-09T12:25:07.737Z,20.08
2022-10-09T12:27:38.832Z,20.05
2022-10-09T12:30:12.653Z,20.15
2022-10-09T12:32:51.118Z,20.31
2022-10-09T12:35:35.749Z,20.41
2022-10-09T12:38:02.872Z,20.41
2022-10-09T12:40:33.453Z,20.07
2022-10-09T12:43:07.930Z,19.92
2022-10-09T12:45:43.404Z,19.11
2022-10-09T12:48:12.596Z,19.17
2022-10-09T12:50:40.280Z,19.14
2022-10-09T12:53:13.804Z,19.60
2022-10-09T12:55:45.967Z,20.10
2022-10-09T12:58:20.477Z,20.47
2022-10-09T13:00:50.124Z,20.71
2022-10-09T13:03:25.357Z,20.88
2022-10-09T13:05:52.678Z,21.02
2022-10-09T13:08:34.714Z,20.94
2022-10-09T13:11:21.461Z,20.94
2022-10-09T13:13:53.680Z,20.74
2022-10-09T13:16:21.567Z,20.69
2022-10-09T13:19:03.882Z,20.65
2022-10-09T13:21:35.249Z,20.64
2022-10-09T13:24:13.366Z,20.74
2022-10-09T13:26:43.409Z,20.66
2022-10-09T13:29:13.488Z,20.80
2022-10-09T13:31:43.519Z,20.94
2022-10-09T13:34:12.911Z,21.00
2022-10-09T13:36:40.207Z,20.80
2022-10-09T13:39:07.004Z,20.85
2022-10-09T13:41:33.832Z,20.97
2022-10-09T13:44:00.467Z,21.03
2022-10-09T13:46:27.220Z,20.95
2022-10-09T13:48:53.849Z,21.04
2022-10-09T13:51:20.517Z,21.11
2022-10-09T13:53:47.228Z,20.91
2022-10-09T13:56:13.925Z,20.85
2022-10-09T13:58:40.619Z,20.75
2022-10-09T14:01:08.070Z,20.63
2022-10-09T14:03:34.974Z,20.56
2022-10-09T14:06:03.153Z,20.46
2022-10-09T14:08:30.732Z,20.31
2022-10-09T14:11:00.640Z,20.19
2022-10-09T14:13:27.649Z,20.09
2022-10-09T14:15:54.744Z,19.97
2022-10-09T14:18:22.081Z,19.72
2022-10-09T14:20:49.506Z,19.47
2022-10-09T14:23:16.274Z,19.35
2022-10-09T14:25:42.986Z,19.26
2022-10-09T14:28:09.711Z,19.18
2022-10-09T14:30:40.947Z,19.22
2022-10-09T14:33:07.847Z,19.21
2022-10-09T14:35:34.494Z,19.28
2022-10-09T14:38:01.479Z,19.26
2022-10-09T14:40:28.035Z,19.28
2022-10-09T14:42:54.719Z,19.34
2022-10-09T14:45:21.567Z,19.30
2022-10-09T14:47:48.149Z,19.24
2022-10-09T14:50:14.843Z,19.18
2022-10-09T14:52:42.275Z,18.88
2022-10-09T14:55:09.204Z,18.92
2022-10-09T14:57:35.957Z,18.76
2022-10-09T15:00:04.891Z,18.70
2022-10-09T15:02:31.716Z,18.73
2022-10-09T15:04:58.322Z,18.66
2022-10-09T15:07:28.003Z,18.60
2022-10-09T15:09:55.067Z,18.62
2022-10-09T15:12:21.780Z,18.52
2022-10-09T15:14:48.499Z,18.33
2022-10-09T15:17:15.184Z,18.11
2022-10-09T15:19:41.948Z,17.89
2022-10-09T15:22:08.748Z,17.87
2022-10-09T15:24:35.432Z,17.87
2022-10-09T15:27:02.159Z,17.87
2022-10-09T15:29:28.836Z,17.82
2022-10-09T15:31:55.611Z,17.77
2022-10-09T15:34:22.355Z,17.69
2022-10-09T15:36:49.349Z,17.61
2022-10-09T15:39:16.059Z,17.48
2022-10-09T15:41:43.518Z,17.38
2022-10-09T15:44:16.882Z,17.25
2022-10-09T15:46:44.811Z,17.14
2022-10-09T15:49:12.344Z,17.01
2022-10-09T15:51:39.114Z,16.89
2022-10-09T15:54:06.664Z,16.77
2022-10-09T15:56:39.449Z,16.62
2022-10-09T15:59:14.346Z,16.51
2022-10-09T16:01:42.201Z,16.38
2022-10-09T16:04:10.685Z,16.24
2022-10-09T16:06:39.419Z,16.09
2022-10-09T16:09:07.709Z,15.94
2022-10-09T16:11:34.854Z,15.79
2022-10-09T16:14:03.331Z,15.63
2022-10-09T16:16:32.144Z,15.50
2022-10-09T16:19:00.190Z,15.30
2022-10-09T16:21:29.380Z,15.25
2022-10-09T16:24:00.127Z,15.15
2022-10-09T16:26:30.067Z,15.05
2022-10-09T16:29:01.450Z,14.96
2022-10-09T16:31:34.721Z,14.84
2022-10-09T16:34:05.132Z,14.67
2022-10-09T16:36:35.248Z,14.52
2022-10-09T16:39:03.741Z,14.37
2022-10-09T16:41:31.342Z,14.19
2022-10-09T16:44:00.411Z,14.09
2022-10-09T16:49:03.239Z,13.82
2022-10-09T16:51:36.069Z,13.72
2022-10-09T16:54:05.581Z,13.65
2022-10-09T16:56:36.385Z,13.59
2022-10-09T16:59:06.888Z,13.51
2022-10-09T17:01:38.249Z,13.44
2022-10-09T17:04:05.145Z,13.34
2022-10-09T17:06:31.894Z,13.19
2022-10-09T17:09:00.103Z,13.02
2022-10-09T17:11:29.769Z,12.93
2022-10-09T17:13:57.220Z,12.78
2022-10-09T17:16:26.873Z,12.30
2022-10-09T17:18:54.452Z,12.07
2022-10-09T17:21:21.819Z,12.16
2022-10-09T17:23:48.490Z,12.31
2022-10-09T17:26:17.957Z,12.40
2022-10-09T17:28:46.310Z,12.48
2022-10-09T17:31:16.552Z,12.48
2022-10-09T17:33:46.160Z,12.42
2022-10-09T17:36:18.045Z,12.36
2022-10-09T17:38:45.520Z,12.31
2022-10-09T17:41:14.681Z,12.25
2022-10-09T17:43:41.748Z,12.18
2022-10-09T17:46:08.465Z,12.10
2022-10-09T17:48:36.155Z,12.05
2022-10-09T17:51:04.618Z,11.98
2022-10-09T17:53:31.903Z,11.94
2022-10-09T17:56:03.501Z,11.88
2022-10-09T17:58:30.448Z,11.82
2022-10-09T18:00:57.255Z,11.72
2022-10-09T18:03:24.352Z,11.69
2022-10-09T18:05:50.961Z,11.68
2022-10-09T18:08:19.770Z,11.65
2022-10-09T18:10:46.516Z,11.62
2022-10-09T18:13:14.258Z,11.58
2022-10-09T18:15:43.383Z,11.52
2022-10-09T18:18:11.137Z,11.49
2022-10-09T18:20:38.898Z,11.44
2022-10-09T18:23:06.499Z,11.40
2022-10-09T18:25:33.680Z,11.34
2022-10-09T18:28:00.228Z,11.26
2022-10-09T18:30:27.858Z,11.21
2022-10-09T18:32:54.776Z,11.13
2022-10-09T18:35:21.540Z,11.09
2022-10-09T18:37:48.249Z,11.04
2022-10-09T18:40:15.058Z,10.97
2022-10-09T18:42:41.734Z,10.90
2022-10-09T18:45:12.709Z,10.83
2022-10-09T18:47:40.594Z,10.74
2022-10-09T18:50:10.772Z,10.67
2022-10-09T18:52:38.372Z,10.55
2022-10-09T18:55:07.511Z,10.52
2022-10-09T18:57:34.414Z,10.43
2022-10-09T19:00:02.015Z,10.38
2022-10-09T19:02:28.819Z,10.34
2022-10-09T19:04:55.832Z,10.29
2022-10-09T19:07:22.543Z,10.26
2022-10-09T19:09:53.603Z,10.21
2022-10-09T19:12:23.164Z,10.15
2022-10-09T19:14:49.891Z,10.09
2022-10-09T19:17:16.919Z,10.04
2022-10-09T19:19:43.800Z,9.99
2022-10-09T19:22:15.806Z,9.94
2022-10-09T19:24:44.350Z,9.87
2022-10-09T19:27:11.584Z,9.80
2022-10-09T19:29:38.245Z,9.70
2022-10-09T19:32:05.033Z,9.69
2022-10-09T19:34:31.915Z,9.69
2022-10-09T19:36:58.745Z,9.67
2022-10-09T19:39:25.615Z,9.61
2022-10-09T19:41:52.332Z,9.65
2022-10-09T19:44:19.399Z,9.61
2022-10-09T19:46:46.122Z,9.48
2022-10-09T19:49:12.860Z,9.45
2022-10-09T19:51:39.708Z,9.36
2022-10-09T19:54:08.684Z,9.24
2022-10-09T19:56:36.414Z,9.17
2022-10-09T19:59:05.824Z,9.14
2022-10-09T20:01:35.333Z,9.06
2022-10-09T20:04:05.792Z,9.03
2022-10-09T20:06:32.807Z,8.98
2022-10-09T20:08:59.544Z,8.93
2022-10-09T20:11:26.763Z,8.90
2022-10-09T20:13:56.156Z,8.86
2022-10-09T20:16:24.692Z,8.76
2022-10-09T20:18:51.398Z,8.75
2022-10-09T20:21:18.720Z,8.74
2022-10-09T20:23:45.605Z,8.73
2022-10-09T20:26:17.117Z,8.72
2022-10-09T20:28:44.668Z,8.70
2022-10-09T20:31:18.065Z,8.68
2022-10-09T20:33:45.941Z,8.63
2022-10-09T20:36:19.874Z,8.64
2022-10-09T20:38:46.672Z,8.62
2022-10-09T20:41:13.432Z,8.59
2022-10-09T20:43:40.273Z,8.55
2022-10-09T20:46:08.956Z,8.48
2022-10-09T20:48:36.024Z,8.45
2022-10-09T20:51:03.112Z,8.45
2022-10-09T20:53:29.867Z,8.42
2022-10-09T20:56:01.705Z,8.41
2022-10-09T20:58:28.980Z,8.38
2022-10-09T21:00:55.631Z,8.38
2022-10-09T21:03:22.575Z,8.37
2022-10-09T21:05:49.392Z,8.34
2022-10-09T21:08:16.119Z,8.32
2022-10-09T21:10:48.513Z,8.31
2022-10-09T21:13:16.101Z,8.24
2022-10-09T21:15:47.484Z,8.19
2022-10-09T21:18:15.540Z,8.13
2022-10-09T21:20:44.173Z,8.04
2022-10-09T21:23:13.108Z,7.96
2022-10-09T21:25:46.751Z,7.93
2022-10-09T21:28:13.539Z,7.89
2022-10-09T21:30:41.701Z,7.87
2022-10-09T21:33:09.491Z,7.83
2022-10-09T21:35:44.744Z,7.81
2022-10-09T21:38:14.862Z,7.80
2022-10-09T21:40:42.338Z,7.79
2022-10-09T21:43:10.565Z,7.79
2022-10-09T21:45:39.094Z,7.78
2022-10-09T21:48:06.569Z,7.75
2022-10-09T21:50:34.320Z,7.73
2022-10-09T21:53:01.124Z,7.68
2022-10-09T21:55:27.902Z,7.62
2022-10-09T21:57:54.581Z,7.58
2022-10-09T22:00:21.352Z,7.53
2022-10-09T22:02:48.388Z,7.47
2022-10-09T22:05:15.224Z,7.43
2022-10-09T22:07:41.929Z,7.37
2022-10-09T22:10:09.057Z,7.36
2022-10-09T22:12:35.769Z,7.38
2022-10-09T22:15:02.584Z,7.39
2022-10-09T22:17:29.280Z,7.37
2022-10-09T22:19:55.971Z,7.31
2022-10-09T22:22:24.011Z,7.27
2022-10-09T22:24:51.980Z,7.24
2022-10-09T22:27:19.466Z,7.21
2022-10-09T22:29:46.119Z,7.18
2022-10-09T22:32:12.876Z,7.15
2022-10-09T22:34:39.608Z,7.12
2022-10-09T22:37:06.390Z,7.09
2022-10-09T22:39:33.195Z,7.04
2022-10-09T22:41:59.896Z,7.08
2022-10-09T22:44:26.575Z,7.13
2022-10-09T22:46:53.280Z,7.12
2022-10-09T22:49:20.028Z,7.09
2022-10-09T22:51:46.692Z,7.08
2022-10-09T22:54:13.726Z,7.06
2022-10-09T22:56:43.203Z,7.02
2022-10-09T22:59:12.435Z,6.94
2022-10-09T23:01:57.038Z,6.87
2022-10-09T23:04:23.860Z,6.88
2022-10-09T23:06:52.418Z,6.85
2022-10-09T23:09:20.379Z,6.81
2022-10-09T23:11:47.133Z,6.78
2022-10-09T23:14:14.115Z,6.78
2022-10-09T23:16:41.500Z,6.74
2022-10-09T23:19:08.391Z,6.76
2022-10-09T23:21:37.496Z,6.74
2022-10-09T23:24:05.175Z,6.73
2022-10-09T23:26:33.361Z,6.71
2022-10-09T23:29:03.485Z,6.70
2022-10-09T23:31:30.442Z,6.68
2022-10-09T23:33:57.550Z,6.66
2022-10-09T23:36:26.424Z,6.60
2022-10-09T23:38:53.862Z,6.60
2022-10-09T23:41:22.913Z,6.61
2022-10-09T23:43:50.488Z,6.62
2022-10-09T23:46:20.497Z,6.63
2022-10-09T23:48:48.359Z,6.68
2022-10-09T23:51:16.048Z,6.71
2022-10-09T23:53:43.746Z,6.70
2022-10-09T23:56:18.325Z,6.73
2022-10-09T23:58:45.770Z,6.76
